Time;durP1;ratioP1;P1;durP2;ratioP2;P2;SDS_P1;SDS_P2;PMS_P1;PMS_P2;Temp;Humidity;BMP_temperature;BMP_pressure;BME280_temperature;BME280_humidity;BME280_pressure;Samples;Min_cycle;Max_cycle;Signal;HPM_P1;HPM_P2
2021/06/20 00:00:25;;;;;;;4.07;1.38;;;;;;;23.24;55.90;94826.09;5010992;28;20431;-71
2021/06/20 00:02:51;;;;;;;3.35;1.50;;;;;;;23.24;55.88;94829.53;5046476;28;20028;-72
2021/06/20 00:05:18;;;;;;;1.90;1.33;;;;;;;23.22;55.94;94817.69;5027803;28;20029;-72
2021/06/20 00:07:44;;;;;;;4.60;1.50;;;;;;;23.21;56.31;94813.50;5045145;28;20020;-72
2021/06/20 00:10:10;;;;;;;2.35;1.30;;;;;;;23.21;56.13;94814.22;5046380;28;20488;-71
2021/06/20 00:12:36;;;;;;;2.33;1.40;;;;;;;22.94;56.04;94782.59;5046146;28;20518;-71
2021/06/20 00:15:03;;;;;;;2.75;1.60;;;;;;;23.19;56.06;94805.84;5027346;28;20033;-71
2021/06/20 00:17:28;;;;;;;2.70;1.25;;;;;;;22.91;56.22;94786.31;5046500;28;20040;-72
2021/06/20 00:19:54;;;;;;;3.80;1.38;;;;;;;23.10;56.06;94819.06;5011488;28;20082;-71
2021/06/20 00:22:19;;;;;;;3.90;1.48;;;;;;;23.17;56.12;94830.13;5028568;28;20013;-71
2021/06/20 00:24:45;;;;;;;1.80;1.25;;;;;;;22.74;56.43;94776.84;5027933;28;20097;-72
2021/06/20 00:27:10;;;;;;;2.35;1.42;;;;;;;23.09;56.05;94821.06;5028412;28;20087;-71
2021/06/20 00:29:36;;;;;;;2.50;1.40;;;;;;;23.10;56.27;94821.78;5045382;28;20025;-71
2021/06/20 00:32:01;;;;;;;1.63;1.23;;;;;;;23.06;56.27;94813.91;5046143;28;20033;-71
2021/06/20 00:34:27;;;;;;;2.85;1.35;;;;;;;23.04;56.12;94821.84;5046181;28;20037;-71
2021/06/20 00:36:52;;;;;;;1.88;1.40;;;;;;;23.04;56.20;94827.28;5047398;28;20045;-72
2021/06/20 00:39:18;;;;;;;3.05;1.60;;;;;;;23.02;55.91;94829.78;5049610;28;20017;-72
2021/06/20 00:41:43;;;;;;;2.45;1.25;;;;;;;22.98;56.16;94823.16;5050097;28;20426;-72
2021/06/20 00:44:09;;;;;;;4.43;1.30;;;;;;;22.98;56.26;94818.44;5050081;28;20036;-72
2021/06/20 00:46:35;;;;;;;2.55;1.30;;;;;;;22.99;56.23;94830.81;5049950;28;20029;-72
2021/06/20 00:49:00;;;;;;;3.72;1.52;;;;;;;23.00;56.25;94826.84;5049950;28;20025;-72
2021/06/20 00:51:25;;;;;;;4.30;1.60;;;;;;;22.88;56.25;94878.44;5049869;28;20028;-72
2021/06/20 00:53:51;;;;;;;3.17;1.50;;;;;;;22.81;56.29;94797.31;5015791;28;20037;-72
2021/06/20 00:56:17;;;;;;;2.08;1.55;;;;;;;22.94;56.40;94812.56;5049390;28;20082;-72
2021/06/20 00:58:43;;;;;;;5.03;1.33;;;;;;;22.70;56.12;94786.53;5032596;28;20077;-72
2021/06/20 01:01:08;;;;;;;3.58;1.27;;;;;;;22.92;56.00;94804.13;5015804;28;20109;-71
2021/06/20 01:03:34;;;;;;;2.15;1.50;;;;;;;22.91;56.00;94791.78;5049999;28;20099;-71
2021/06/20 01:06:00;;;;;;;1.80;1.50;;;;;;;22.94;56.22;94801.66;5058988;28;20037;-72
2021/06/20 01:08:29;;;;;;;6.30;1.50;;;;;;;22.95;55.94;94802.41;5051830;28;20043;-72
2021/06/20 01:10:54;;;;;;;2.72;1.40;;;;;;;22.94;56.09;94798.19;5069816;28;20031;-72
2021/06/20 01:13:20;;;;;;;4.43;1.45;;;;;;;22.91;56.06;94802.66;5069449;28;20036;-71
2021/06/20 01:15:47;;;;;;;4.55;1.23;;;;;;;22.88;56.12;94798.25;5069475;28;20021;-71
2021/06/20 01:18:12;;;;;;;2.03;1.00;;;;;;;22.45;55.94;94738.78;5039328;28;20024;-71
2021/06/20 01:20:38;;;;;;;3.05;1.33;;;;;;;22.75;55.72;94788.47;5030041;28;20035;-72
2021/06/20 01:23:03;;;;;;;3.15;1.50;;;;;;;22.84;55.75;94796.28;5049614;28;20025;-71
2021/06/20 01:25:29;;;;;;;3.47;1.20;;;;;;;22.79;55.61;94802.53;5049683;28;20479;-72
2021/06/20 01:28:03;;;;;;;3.58;1.50;;;;;;;22.82;55.59;94804.25;5049407;28;20025;-71
2021/06/20 01:30:30;;;;;;;1.85;1.60;;;;;;;22.79;55.96;94795.09;5049380;28;20029;-71
2021/06/20 01:32:57;;;;;;;2.00;1.15;;;;;;;22.76;55.93;94800.84;5049031;28;20025;-71
2021/06/20 01:35:22;;;;;;;2.67;1.20;;;;;;;22.74;55.88;94792.44;5028467;28;20021;-71
2021/06/20 01:37:48;;;;;;;4.20;1.20;;;;;;;22.77;55.74;94797.59;5049243;28;20431;-71
2021/06/20 01:40:15;;;;;;;1.80;1.17;;;;;;;22.71;55.61;94798.91;5048513;28;20044;-71
2021/06/20 01:42:41;;;;;;;2.63;1.23;;;;;;;22.75;55.86;94804.78;5031160;28;20080;-71
2021/06/20 01:45:08;;;;;;;2.33;1.45;;;;;;;22.67;55.79;94787.56;5049164;28;20032;-71
2021/06/20 01:47:33;;;;;;;4.82;1.52;;;;;;;22.65;55.77;94795.50;5030222;28;20169;-72
2021/06/20 01:50:00;;;;;;;2.35;1.20;;;;;;;22.58;55.94;94785.16;5025514;28;20474;-71
2021/06/20 01:52:26;;;;;;;2.58;1.30;;;;;;;22.72;56.02;94816.69;5051135;28;20144;-71
2021/06/20 01:54:52;;;;;;;3.97;1.40;;;;;;;22.48;55.63;94786.72;5068858;28;20028;-72
2021/06/20 01:57:28;;;;;;;1.52;1.20;;;;;;;22.67;55.54;94814.78;5034460;28;20553;-72
2021/06/20 01:59:54;;;;;;;3.17;1.20;;;;;;;22.69;55.92;94823.91;5068644;28;20032;-71
2021/06/20 02:02:20;;;;;;;2.45;1.30;;;;;;;22.68;55.50;94821.69;5068859;28;20020;-72
2021/06/20 02:04:45;;;;;;;2.88;1.10;;;;;;;22.64;55.56;94808.34;5068564;28;20513;-72
2021/06/20 02:07:11;;;;;;;2.20;1.30;;;;;;;22.70;55.78;94813.75;5050850;28;20060;-71
2021/06/20 02:09:37;;;;;;;4.35;1.27;;;;;;;22.68;55.84;94817.00;5068418;28;20016;-71
2021/06/20 02:12:06;;;;;;;2.80;1.60;;;;;;;22.67;55.53;94814.78;5068679;28;20043;-71
2021/06/20 02:14:32;;;;;;;2.45;1.27;;;;;;;22.69;55.85;94817.72;5056367;28;20064;-71
2021/06/20 02:16:58;;;;;;;2.90;1.40;;;;;;;22.52;55.53;94793.38;5047406;28;20021;-71
2021/06/20 02:19:24;;;;;;;3.10;1.30;;;;;;;22.65;55.81;94817.28;5048348;28;20510;-72
2021/06/20 02:21:49;;;;;;;4.95;1.50;;;;;;;22.61;55.58;94822.25;5048246;28;20029;-71
2021/06/20 02:24:15;;;;;;;3.13;1.45;;;;;;;22.62;55.84;94826.47;5048057;28;20039;-71
2021/06/20 02:26:40;;;;;;;3.30;1.30;;;;;;;22.60;55.52;94832.41;5048182;28;20848;-71
2021/06/20 02:29:06;;;;;;;5.95;1.40;;;;;;;22.58;55.53;94824.00;5046334;28;20037;-71
2021/06/20 02:31:31;;;;;;;3.55;1.63;;;;;;;22.57;56.07;94824.50;5030161;28;20017;-71
2021/06/20 02:33:57;;;;;;;2.58;1.30;;;;;;;22.57;55.71;94827.22;5047790;28;21401;-72
2021/06/20 02:36:23;;;;;;;4.85;1.98;;;;;;;22.26;56.01;94786.94;5047814;28;20774;-71
2021/06/20 02:38:48;;;;;;;3.50;1.40;;;;;;;22.55;56.29;94818.84;5013812;28;20025;-71
2021/06/20 02:41:14;;;;;;;4.05;1.67;;;;;;;22.12;56.05;94760.81;5047812;28;20499;-71
2021/06/20 02:43:39;;;;;;;2.90;1.70;;;;;;;22.53;56.26;94821.34;5013458;28;20025;-72
2021/06/20 02:46:05;;;;;;;3.58;1.60;;;;;;;22.53;55.97;94821.34;5030291;28;20025;-72
2021/06/20 02:48:30;;;;;;;3.00;1.63;;;;;;;22.54;56.28;94817.34;5047518;28;20029;-71
2021/06/20 02:50:55;;;;;;;2.22;1.88;;;;;;;22.33;56.24;94797.28;5029844;28;20419;-71
2021/06/20 02:53:21;;;;;;;4.28;1.65;;;;;;;22.47;56.32;94823.38;5030187;28;20035;-71
2021/06/20 02:55:46;;;;;;;2.35;1.50;;;;;;;22.46;56.05;94816.44;5013447;28;20021;-71
2021/06/20 02:58:12;;;;;;;3.90;1.70;;;;;;;22.22;55.84;94766.69;5013401;28;20025;-71
2021/06/20 03:00:38;;;;;;;3.65;1.70;;;;;;;22.44;55.69;94818.94;5012777;28;20036;-71
2021/06/20 03:03:03;;;;;;;4.10;1.73;;;;;;;22.45;55.53;94825.84;5029469;28;20029;-72
2021/06/20 03:05:29;;;;;;;2.05;1.80;;;;;;;22.46;55.43;94832.78;5029835;28;20419;-71
2021/06/20 03:07:54;;;;;;;3.30;1.70;;;;;;;22.39;55.62;94817.00;5047166;28;20540;-71
2021/06/20 03:10:20;;;;;;;3.45;1.88;;;;;;;22.41;55.75;94819.97;5029669;28;20025;-72
2021/06/20 03:12:45;;;;;;;2.10;1.52;;;;;;;22.42;56.50;94810.56;5047126;28;20076;-71
2021/06/20 03:15:11;;;;;;;2.55;1.85;;;;;;;22.43;56.24;94817.47;5047208;28;20025;-71
2021/06/20 03:17:36;;;;;;;3.70;1.60;;;;;;;22.43;56.26;94817.47;5047277;28;20112;-71
2021/06/20 03:20:02;;;;;;;4.47;1.73;;;;;;;22.43;56.59;94812.03;5029131;28;20009;-72
2021/06/20 03:22:28;;;;;;;3.15;1.60;;;;;;;22.43;56.19;94817.47;5046579;28;20039;-71
2021/06/20 03:24:53;;;;;;;4.05;1.90;;;;;;;22.37;56.47;94803.16;5046900;28;20033;-71
2021/06/20 03:27:19;;;;;;;3.78;1.80;;;;;;;22.44;56.04;94806.06;5047025;28;20052;-71
2021/06/20 03:29:46;;;;;;;3.50;1.80;;;;;;;22.52;55.87;94819.84;5046990;28;20036;-72
2021/06/20 03:32:11;;;;;;;3.15;1.73;;;;;;;22.47;56.24;94801.59;5029211;28;20025;-72
2021/06/20 03:34:37;;;;;;;2.90;1.75;;;;;;;22.54;56.16;94812.66;5046332;28;20023;-72
2021/06/20 03:37:03;;;;;;;3.08;1.92;;;;;;;22.54;56.54;94817.34;5045642;28;20207;-72
2021/06/20 03:39:29;;;;;;;3.95;2.00;;;;;;;22.49;56.28;94809.97;5044732;28;20024;-72
2021/06/20 03:41:54;;;;;;;3.88;1.75;;;;;;;22.55;56.33;94816.13;5028149;28;20013;-72
2021/06/20 03:44:20;;;;;;;3.58;1.75;;;;;;;22.55;56.51;94813.41;5045352;28;20043;-72
2021/06/20 03:46:45;;;;;;;5.00;1.85;;;;;;;22.27;56.22;94772.09;5045523;28;20479;-72
2021/06/20 03:49:11;;;;;;;2.50;1.60;;;;;;;22.56;56.00;94804.72;5011080;28;20563;-72
2021/06/20 03:51:36;;;;;;;3.40;1.55;;;;;;;22.59;56.02;94802.97;5023176;28;20034;-72
2021/06/20 03:54:02;;;;;;;1.88;1.50;;;;;;;22.63;56.16;94808.88;5038804;28;20029;-72
2021/06/20 03:56:27;;;;;;;1.95;1.58;;;;;;;22.64;56.28;94804.91;5038297;28;20071;-72
2021/06/20 03:58:53;;;;;;;3.30;1.98;;;;;;;22.68;55.90;94799.94;5045126;28;20032;-73
2021/06/20 04:01:18;;;;;;;2.40;1.50;;;;;;;22.68;56.20;94799.94;5045678;28;20426;-72
2021/06/20 04:03:44;;;;;;;3.10;1.60;;;;;;;22.65;56.08;94800.94;5044924;28;20025;-72
2021/06/20 04:06:09;;;;;;;4.22;1.60;;;;;;;22.66;56.31;94799.69;5041218;28;20048;-72
2021/06/20 04:08:35;;;;;;;2.42;1.58;;;;;;;22.66;56.21;94803.16;5030643;28;20029;-73
2021/06/20 04:11:00;;;;;;;6.38;1.40;;;;;;;22.67;56.46;94814.78;5030801;28;20037;-72
2021/06/20 04:13:25;;;;;;;2.42;1.33;;;;;;;22.67;56.51;94820.22;5036708;28;20029;-72
2021/06/20 04:15:51;;;;;;;2.78;1.75;;;;;;;22.69;56.38;94812.28;5042212;28;20037;-72
2021/06/20 04:18:16;;;;;;;3.38;1.70;;;;;;;22.67;56.43;94820.22;5034508;28;20044;-74
2021/06/20 04:20:42;;;;;;;2.70;1.63;;;;;;;22.69;56.35;94834.03;5041736;28;20044;-73
2021/06/20 04:23:08;;;;;;;4.40;1.90;;;;;;;22.70;56.73;94824.66;5043981;28;20033;-72
2021/06/20 04:25:34;;;;;;;3.00;1.80;;;;;;;22.71;57.00;94826.13;5043247;28;20037;-73
2021/06/20 04:28:01;;;;;;;2.25;1.73;;;;;;;22.57;56.70;94805.44;5038384;28;20036;-73
2021/06/20 04:30:27;;;;;;;3.45;1.67;;;;;;;22.74;57.09;94827.84;5042481;28;20033;-74
2021/06/20 04:32:53;;;;;;;4.40;2.20;;;;;;;22.78;57.13;94831.00;5044178;28;20115;-74
2021/06/20 04:35:19;;;;;;;4.07;2.20;;;;;;;22.81;57.41;94835.41;5025730;28;20067;-73
2021/06/20 04:37:44;;;;;;;3.00;2.35;;;;;;;22.85;57.91;94838.59;5044069;28;20033;-73
2021/06/20 04:40:16;;;;;;;3.97;2.80;;;;;;;22.88;57.95;94836.34;5044939;28;20024;-72
2021/06/20 04:42:43;;;;;;;3.70;2.65;;;;;;;22.90;57.89;94830.41;5044766;28;20025;-72
2021/06/20 04:45:09;;;;;;;4.22;2.85;;;;;;;22.88;58.13;94836.34;5045436;28;20085;-71
2021/06/20 04:47:34;;;;;;;4.68;3.30;;;;;;;22.95;58.21;94835.81;5045326;28;20024;-70
2021/06/20 04:50:00;;;;;;;6.18;3.58;;;;;;;22.94;57.98;94834.34;5026892;28;20474;-70
2021/06/20 04:52:25;;;;;;;4.70;4.07;;;;;;;23.03;58.37;94842.19;5027455;28;20115;-70
2021/06/20 04:54:51;;;;;;;5.63;3.80;;;;;;;23.06;58.36;94846.59;5045166;28;20442;-70
2021/06/20 04:57:18;;;;;;;5.65;3.58;;;;;;;23.12;58.10;94850.00;5025079;28;20117;-71
2021/06/20 04:59:43;;;;;;;5.50;3.70;;;;;;;23.07;58.20;94831.00;5044872;28;20043;-73
2021/06/20 05:02:09;;;;;;;6.15;3.72;;;;;;;22.76;58.21;94795.38;5011333;28;20487;-72
2021/06/20 05:04:35;;;;;;;3.90;3.03;;;;;;;23.17;57.96;94857.38;5025252;28;20036;-72
2021/06/20 05:07:01;;;;;;;5.25;3.47;;;;;;;23.30;58.09;94860.19;5027509;28;20035;-73
2021/06/20 05:09:27;;;;;;;7.28;3.60;;;;;;;23.20;57.60;94822.91;5045065;28;20017;-73
2021/06/20 05:11:52;;;;;;;3.85;3.42;;;;;;;23.15;57.55;94791.78;5028660;28;20130;-73
2021/06/20 05:14:18;;;;;;;5.30;3.13;;;;;;;23.56;57.67;94844.06;5011640;28;20517;-73
2021/06/20 05:16:43;;;;;;;4.78;3.22;;;;;;;23.62;57.41;94842.00;5044883;28;20040;-70
2021/06/20 05:19:08;;;;;;;3.47;2.60;;;;;;;23.70;57.03;94838.19;5045662;28;20024;-71
2021/06/20 05:21:34;;;;;;;4.72;3.10;;;;;;;23.80;57.14;94847.47;5045027;28;20024;-73
2021/06/20 05:24:04;;;;;;;4.03;2.83;;;;;;;23.88;56.42;94843.66;5046524;28;20123;-71
2021/06/20 05:26:29;;;;;;;3.58;2.83;;;;;;;23.76;55.98;94808.13;5048427;28;20491;-71
2021/06/20 05:28:55;;;;;;;4.78;2.55;;;;;;;24.06;55.90;94839.44;5027565;28;20060;-72
2021/06/20 05:31:20;;;;;;;4.05;2.90;;;;;;;24.18;55.61;94844.19;5048247;28;20036;-72
2021/06/20 05:33:46;;;;;;;4.93;2.67;;;;;;;24.25;54.92;94842.88;5047947;28;20036;-73
2021/06/20 05:36:11;;;;;;;5.57;2.40;;;;;;;24.16;54.70;94813.97;5047716;28;20529;-71
2021/06/20 05:38:37;;;;;;;4.80;2.70;;;;;;;24.39;54.56;94848.63;5047263;28;20025;-71
2021/06/20 05:41:02;;;;;;;3.25;2.50;;;;;;;24.47;54.50;94843.31;5049696;28;20519;-72
2021/06/20 05:43:28;;;;;;;3.45;2.30;;;;;;;24.53;54.31;94841.97;5047966;28;20025;-71
2021/06/20 05:45:53;;;;;;;2.60;2.40;;;;;;;24.37;53.41;94817.66;5047852;28;20033;-70
2021/06/20 05:48:19;;;;;;;3.92;2.50;;;;;;;24.57;53.58;94847.09;5048046;28;20399;-72
2021/06/20 05:50:44;;;;;;;3.40;2.35;;;;;;;24.59;53.54;94850.06;5047460;28;20055;-73
2021/06/20 05:53:10;;;;;;;4.25;2.47;;;;;;;24.64;53.11;94846.50;5013541;28;20033;-73
2021/06/20 05:55:35;;;;;;;3.78;2.00;;;;;;;24.68;53.63;94846.91;5047846;28;20052;-69
2021/06/20 05:58:01;;;;;;;3.33;2.20;;;;;;;24.72;52.90;94844.63;5048290;28;20028;-70
2021/06/20 06:00:26;;;;;;;4.97;2.05;;;;;;;24.81;53.59;94852.41;5048533;28;20021;-73
2021/06/20 06:02:51;;;;;;;4.00;2.13;;;;;;;24.84;53.35;94850.13;5048266;28;20021;-71
2021/06/20 06:05:17;;;;;;;2.75;1.95;;;;;;;24.82;52.96;94836.22;5048424;28;20676;-73
2021/06/20 06:07:44;;;;;;;3.20;2.13;;;;;;;24.90;52.91;94826.19;5048080;28;20025;-73
2021/06/20 06:10:10;;;;;;;4.25;2.15;;;;;;;24.94;53.13;94832.06;5048889;28;20031;-72
2021/06/20 06:12:35;;;;;;;3.60;1.98;;;;;;;24.99;52.85;94831.25;5048735;28;20487;-71
2021/06/20 06:15:01;;;;;;;3.47;1.90;;;;;;;24.96;52.27;94818.63;5030502;28;20029;-71
2021/06/20 06:17:26;;;;;;;2.70;2.17;;;;;;;25.02;52.67;94816.56;5048234;28;21340;-72
2021/06/20 06:19:52;;;;;;;3.00;1.90;;;;;;;25.06;52.24;94818.97;5047900;28;20044;-71
2021/06/20 06:22:21;;;;;;;3.35;2.10;;;;;;;25.07;52.44;94817.72;5030868;28;20036;-72
2021/06/20 06:24:46;;;;;;;3.55;2.20;;;;;;;25.11;52.02;94813.41;5047773;28;20111;-72
2021/06/20 06:27:12;;;;;;;5.30;2.95;;;;;;;24.96;52.35;94796.00;5047804;28;20498;-73
2021/06/20 06:29:38;;;;;;;2.80;2.17;;;;;;;25.07;52.45;94812.97;5049713;28;20064;-71
2021/06/20 06:32:06;;;;;;;3.20;2.20;;;;;;;25.14;51.49;94806.88;5029794;28;20033;-73
2021/06/20 06:34:32;;;;;;;2.53;2.00;;;;;;;24.95;52.05;94773.44;5047242;28;20025;-73
2021/06/20 06:36:58;;;;;;;4.28;1.95;;;;;;;25.25;52.04;94814.16;5028467;28;20041;-72
2021/06/20 06:39:25;;;;;;;3.45;2.15;;;;;;;25.36;51.85;94806.44;5047600;28;20040;-71
2021/06/20 06:41:51;;;;;;;4.13;2.10;;;;;;;25.46;51.53;94804.75;5047990;28;20107;-70
2021/06/20 06:44:16;;;;;;;3.03;1.80;;;;;;;25.53;51.42;94812.31;5047517;28;20554;-71
2021/06/20 06:46:42;;;;;;;2.92;1.92;;;;;;;25.63;51.27;94813.34;5047075;28;20037;-70
2021/06/20 06:49:07;;;;;;;4.53;2.17;;;;;;;25.73;50.71;94814.44;5047556;28;20108;-69
2021/06/20 06:51:33;;;;;;;3.08;2.08;;;;;;;25.79;50.38;94815.78;5047430;28;20033;-72
2021/06/20 06:53:58;;;;;;;3.58;1.95;;;;;;;25.79;50.41;94821.25;5028029;28;20025;-72
2021/06/20 06:56:24;;;;;;;2.55;1.80;;;;;;;25.88;50.54;94824.25;5047073;28;20032;-69
2021/06/20 06:59:08;;;;;;;3.05;1.88;;;;;;;25.99;48.93;94813.09;5047440;28;20039;-69
2021/06/20 07:01:33;;;;;;;2.35;1.80;;;;;;;26.06;48.76;94823.38;5045928;28;20035;-71
2021/06/20 07:03:59;;;;;;;2.38;1.67;;;;;;;26.13;48.43;94822.72;5029653;28;20029;-72
2021/06/20 07:06:25;;;;;;;4.20;1.75;;;;;;;26.11;48.66;94830.00;5029062;28;20021;-70
2021/06/20 07:08:50;;;;;;;4.25;1.90;;;;;;;26.15;48.73;94824.94;5027717;28;20051;-71
2021/06/20 07:11:15;;;;;;;4.25;2.08;;;;;;;26.19;48.49;94826.06;5046731;28;20111;-69
2021/06/20 07:13:41;;;;;;;2.72;2.20;;;;;;;26.22;48.60;94808.59;5046690;28;20035;-71
2021/06/20 07:16:06;;;;;;;3.22;1.70;;;;;;;26.06;48.41;94785.06;5046738;28;20033;-70
2021/06/20 07:18:32;;;;;;;3.88;1.85;;;;;;;26.41;48.56;94809.91;5030554;28;20083;-71
2021/06/20 07:20:59;;;;;;;2.50;1.80;;;;;;;26.12;48.11;94782.94;5048740;28;20028;-79
2021/06/20 07:23:24;;;;;;;4.00;2.13;;;;;;;26.22;47.23;94770.25;5012813;28;20425;-79
2021/06/20 07:25:50;;;;;;;5.10;1.92;;;;;;;26.30;48.10;94810.16;5048767;28;20013;-79
2021/06/20 07:28:15;;;;;;;2.80;2.10;;;;;;;26.34;47.27;94787.94;5048654;28;20037;-79
2021/06/20 07:30:41;;;;;;;3.05;1.90;;;;;;;26.12;47.30;94758.28;5014252;28;20025;-85
2021/06/20 07:33:06;;;;;;;2.90;1.85;;;;;;;26.40;47.35;94791.25;5022861;28;20021;-75
2021/06/20 07:35:32;;;;;;;3.38;1.80;;;;;;;26.22;46.80;94753.84;5047312;28;20049;-79
2021/06/20 07:37:57;;;;;;;1.98;1.42;;;;;;;26.60;45.87;94779.56;5017760;28;20035;-76
2021/06/20 07:40:23;;;;;;;2.58;1.60;;;;;;;26.55;46.64;94786.66;5013338;28;20043;-77
2021/06/20 07:42:48;;;;;;;2.85;1.65;;;;;;;26.22;46.64;94737.41;5055618;28;20036;-85
2021/06/20 07:48:12;;;;;;;3.45;1.60;;;;;;;26.35;46.36;94762.00;5015723;28;20059;-84
2021/06/20 07:50:38;;;;;;;4.47;1.60;;;;;;;26.63;46.04;94792.19;5036701;28;20506;-83
2021/06/20 07:53:03;;;;;;;2.42;1.60;;;;;;;26.48;46.68;94779.09;5029407;28;20514;-84
2021/06/20 07:55:29;;;;;;;4.60;1.30;;;;;;;26.23;46.82;94766.25;5013322;28;20032;-83
2021/06/20 07:57:54;;;;;;;3.13;1.50;;;;;;;26.18;47.30;94747.94;5003667;28;20048;-83
2021/06/20 08:00:20;;;;;;;2.38;1.85;;;;;;;26.42;47.76;94791.47;5023383;28;20086;-85
2021/06/20 08:02:46;;;;;;;2.35;1.48;;;;;;;26.12;46.51;94743.88;5058742;28;20028;-84
2021/06/20 08:05:11;;;;;;;2.03;1.40;;;;;;;26.43;47.06;94782.72;5031524;28;20037;-81
2021/06/20 08:07:37;;;;;;;2.63;1.50;;;;;;;26.17;47.37;94746.47;5056959;28;20112;-86
2021/06/20 08:10:03;;;;;;;1.70;1.42;;;;;;;26.43;46.74;94790.94;5016474;28;20024;-85
2021/06/20 08:12:29;;;;;;;2.28;1.33;;;;;;;26.14;46.05;94758.47;5055944;28;20040;-85
2021/06/20 08:14:55;;;;;;;1.92;1.20;;;;;;;25.90;46.36;94750.63;5015854;28;20024;-84
2021/06/20 08:17:20;;;;;;;1.70;1.30;;;;;;;25.88;47.34;94764.06;5021850;28;20025;-84
2021/06/20 08:19:46;;;;;;;2.10;1.20;;;;;;;26.05;47.22;94789.09;5018498;28;20014;-84
2021/06/20 08:22:11;;;;;;;3.08;1.30;;;;;;;25.73;47.15;94762.47;5009883;28;20040;-84
2021/06/20 08:24:37;;;;;;;3.10;1.35;;;;;;;25.79;46.84;94771.28;5014179;28;20025;-84
2021/06/20 08:27:03;;;;;;;1.98;1.55;;;;;;;25.80;46.85;94774.22;5026324;28;20013;-84
2021/06/20 08:29:28;;;;;;;3.92;1.77;;;;;;;25.82;46.64;94782.59;5060511;28;20418;-84
2021/06/20 08:32:03;;;;;;;2.10;1.50;;;;;;;25.58;47.47;94756.78;5027054;28;20028;-84
2021/06/20 08:34:30;;;;;;;1.83;1.45;;;;;;;25.47;46.76;94751.53;5025120;28;20039;-84
2021/06/20 08:36:56;;;;;;;1.85;1.38;;;;;;;25.40;46.94;94741.25;5029461;28;20367;-84
2021/06/20 08:39:22;;;;;;;2.13;1.42;;;;;;;25.33;46.31;94730.97;5030694;28;20037;-84
2021/06/20 08:41:47;;;;;;;2.47;1.95;;;;;;;25.72;46.45;94788.34;5016056;28;20024;-84
2021/06/20 08:44:33;;;;;;;2.20;1.73;;;;;;;25.65;47.02;94788.97;5039755;28;20029;-84
2021/06/20 08:47:02;;;;;;;2.55;1.60;;;;;;;25.53;47.23;94782.22;5057734;28;20129;-84
2021/06/20 08:49:28;;;;;;;2.03;1.35;;;;;;;25.38;47.19;94766.38;5054356;28;20566;-84
2021/06/20 08:51:54;;;;;;;2.92;1.60;;;;;;;25.38;47.24;94760.16;5024716;28;20059;-84
2021/06/20 08:54:20;;;;;;;2.03;1.40;;;;;;;25.30;47.26;94748.41;5035201;28;20419;-84
2021/06/20 08:56:47;;;;;;;2.92;1.50;;;;;;;25.20;46.58;94739.19;5024206;28;20020;-84
2021/06/20 08:59:13;;;;;;;2.35;1.40;;;;;;;25.27;47.18;94749.47;5036591;28;20103;-84
2021/06/20 09:01:39;;;;;;;2.40;1.42;;;;;;;25.34;47.29;94763.22;5026819;28;20044;-84
2021/06/20 09:04:04;;;;;;;3.88;1.70;;;;;;;25.17;47.86;94745.72;5028471;28;20024;-84
2021/06/20 09:06:30;;;;;;;2.28;1.45;;;;;;;25.29;47.52;94746.97;5022425;28;20033;-84
2021/06/20 09:08:57;;;;;;;2.97;1.40;;;;;;;25.47;47.91;94767.94;5039756;28;20381;-84
2021/06/20 09:11:31;;;;;;;2.03;1.30;;;;;;;25.52;47.89;94775.31;5026584;28;20025;-84
2021/06/20 09:14:08;;;;;;;2.00;1.40;;;;;;;25.17;47.60;94723.84;5016262;28;20021;-84
2021/06/20 09:16:34;;;;;;;2.20;1.35;;;;;;;25.15;47.64;94720.91;5032983;28;20025;-84
2021/06/20 09:19:00;;;;;;;1.60;1.27;;;;;;;25.26;48.09;94730.88;5049219;28;20025;-84
2021/06/20 09:21:26;;;;;;;3.35;1.05;;;;;;;25.32;48.37;94740.44;5021271;28;20078;-84
2021/06/20 09:23:56;;;;;;;1.75;1.30;;;;;;;25.27;47.87;94727.59;5037006;28;20025;-84
2021/06/20 09:26:39;;;;;;;2.72;1.77;;;;;;;25.37;46.97;94736.84;5033417;28;20029;-84
2021/06/20 09:29:05;;;;;;;2.10;1.80;;;;;;;25.30;47.57;94729.28;5048797;28;20020;-84
2021/06/20 09:32:04;;;;;;;2.28;1.70;;;;;;;25.56;47.95;94771.00;5036869;28;20032;-84
2021/06/20 09:34:42;;;;;;;2.00;1.50;;;;;;;25.37;47.94;94753.25;5018938;28;20047;-84
2021/06/20 09:37:08;;;;;;;2.45;1.50;;;;;;;25.17;47.98;94718.38;5021496;28;20431;-85
2021/06/20 09:39:33;;;;;;;2.85;1.25;;;;;;;25.29;48.40;94736.03;5017117;28;20025;-84
2021/06/20 09:41:59;;;;;;;2.80;1.45;;;;;;;25.56;48.09;94771.00;5020820;28;20450;-84
2021/06/20 09:44:39;;;;;;;3.25;1.60;;;;;;;25.30;47.47;94715.63;5043015;28;20032;-83
2021/06/20 09:47:05;;;;;;;2.10;1.50;;;;;;;25.40;47.98;94741.97;5037581;28;20040;-84
2021/06/20 09:49:31;;;;;;;2.10;1.35;;;;;;;25.46;47.43;94689.94;5021300;28;20119;-84
2021/06/20 09:51:57;;;;;;;2.50;1.35;;;;;;;25.49;47.64;94749.03;5036420;28;20043;-84
2021/06/20 09:54:51;;;;;;;3.42;1.25;;;;;;;25.38;48.29;94728.13;5020995;28;20040;-84
2021/06/20 09:57:16;;;;;;;2.58;1.38;;;;;;;25.29;47.99;94725.09;5019990;28;20486;-84
2021/06/20 09:59:53;;;;;;;2.33;1.40;;;;;;;25.44;47.62;94741.66;5014923;28;20090;-84
2021/06/20 10:02:26;;;;;;;2.83;1.50;;;;;;;25.27;47.45;94722.13;5033997;28;20029;-84
2021/06/20 10:04:52;;;;;;;2.95;1.50;;;;;;;25.55;47.62;94752.38;5016745;28;20487;-84
2021/06/20 10:07:17;;;;;;;2.15;1.10;;;;;;;25.27;47.56;94716.66;5035718;28;20032;-84
2021/06/20 10:09:43;;;;;;;2.75;1.30;;;;;;;25.29;46.99;94713.41;5023498;28;20043;-84
2021/06/20 10:12:09;;;;;;;2.63;1.27;;;;;;;24.87;47.37;94649.66;5036439;28;20077;-84
2021/06/20 10:14:41;;;;;;;1.98;1.20;;;;;;;25.59;47.29;94747.28;5053140;28;20028;-83
2021/06/20 10:17:08;;;;;;;1.70;1.23;;;;;;;25.57;47.80;94738.91;5028406;28;20584;-84
2021/06/20 10:19:34;;;;;;;2.88;1.30;;;;;;;25.39;48.05;94723.38;5038003;28;20146;-84
2021/06/20 10:22:00;;;;;;;3.15;1.20;;;;;;;25.55;47.50;94731.22;5032729;28;20037;-85
2021/06/20 10:24:26;;;;;;;2.17;1.38;;;;;;;25.43;47.74;94718.31;5035896;28;20043;-84
2021/06/20 10:26:51;;;;;;;2.00;1.33;;;;;;;25.56;47.84;94726.47;5035471;28;20558;-83
2021/06/20 10:29:25;;;;;;;1.85;1.23;;;;;;;25.31;47.38;94693.22;5055872;28;20045;-84
2021/06/20 10:31:51;;;;;;;2.53;1.42;;;;;;;25.36;47.82;94708.03;5032633;28;20425;-84
2021/06/20 10:34:24;;;;;;;2.65;1.20;;;;;;;25.42;47.36;94705.91;5014733;28;20047;-84
2021/06/20 10:36:59;;;;;;;3.17;1.58;;;;;;;25.15;47.65;94677.16;5032645;28;20541;-84
2021/06/20 10:39:25;;;;;;;2.17;1.40;;;;;;;25.33;48.44;94698.91;5046097;28;20494;-84
2021/06/20 10:42:10;;;;;;;1.73;1.33;;;;;;;25.49;48.70;94721.69;5024329;28;20033;-84
2021/06/20 10:44:50;;;;;;;3.25;1.42;;;;;;;25.26;48.33;94687.88;5050011;28;20116;-83
2021/06/20 10:47:28;;;;;;;;;;;;;;;25.51;48.58;94719.88;5049032;28;20020;-84
2021/06/20 10:50:01;;;;;;;2.42;1.50;;;;;;;25.18;48.23;94680.84;5040891;28;20350;-84
2021/06/20 10:52:27;;;;;;;2.10;1.20;;;;;;;25.51;48.56;94714.41;5027812;28;20410;-78
2021/06/20 10:55:08;;;;;;;4.43;1.52;;;;;;;25.48;48.63;94706.53;5045443;28;20024;-86
2021/06/20 10:57:44;;;;;;;5.88;1.75;;;;;;;25.26;48.38;94663.28;5078779;28;20119;-86
2021/06/20 11:00:10;;;;;;;4.38;1.90;;;;;;;25.38;48.60;94684.38;5037728;28;20028;-89
2021/06/20 11:02:35;;;;;;;3.65;1.58;;;;;;;25.63;47.78;94695.75;5027739;28;20028;-79
2021/06/20 11:05:01;;;;;;;3.28;1.30;;;;;;;25.72;47.83;94700.81;5033697;28;20492;-77
2021/06/20 11:07:28;;;;;;;4.25;1.20;;;;;;;25.53;47.33;94678.31;5043860;28;20104;-77
2021/06/20 11:09:57;;;;;;;1.70;1.15;;;;;;;25.67;47.24;94688.00;5045795;28;20029;-77
2021/06/20 11:12:26;;;;;;;3.58;1.20;;;;;;;25.72;47.44;94687.84;5045714;28;20384;-77
2021/06/20 11:14:53;;;;;;;1.47;1.07;;;;;;;25.70;46.75;94697.88;5043630;28;20531;-77
2021/06/20 11:17:19;;;;;;;2.05;1.05;;;;;;;25.67;46.09;94685.25;5012946;28;20499;-77
2021/06/20 11:19:44;;;;;;;1.55;1.27;;;;;;;25.68;46.03;94683.97;5044815;28;20028;-78
2021/06/20 11:22:12;;;;;;;5.18;1.45;;;;;;;25.59;46.78;94659.78;5043307;28;20032;-77
2021/06/20 11:24:40;;;;;;;2.50;1.20;;;;;;;25.73;46.57;94672.19;5028814;28;20037;-78
2021/06/20 11:27:06;;;;;;;1.77;1.10;;;;;;;25.77;46.69;94664.38;5047066;28;20040;-77
2021/06/20 11:29:39;;;;;;;1.73;1.10;;;;;;;25.86;46.60;94662.66;5046766;28;20025;-77
2021/06/20 11:32:05;;;;;;;1.83;1.25;;;;;;;25.86;46.19;94665.38;5030862;28;20128;-77
2021/06/20 11:34:30;;;;;;;1.80;1.20;;;;;;;25.86;46.10;94668.13;5030194;28;20056;-76